Time;durP1;ratioP1;P1;durP2;ratioP2;P2;SDS_P1;SDS_P2;PMS_P1;PMS_P2;Temp;Humidity;BMP_temperature;BMP_pressure;BME280_temperature;BME280_humidity;BME280_pressure;Samples;Min_cycle;Max_cycle;Signal;HPM_P1;HPM_P2
2024/03/30 00:01:56;;;;;;;6.70;3.80;;;;;;;8.23;100.00;99344.38;4972714;28;20443;-82
2024/03/30 00:04:22;;;;;;;6.28;3.33;;;;;;;8.20;100.00;99345.75;4972643;28;20785;-81
2024/03/30 00:06:50;;;;;;;7.60;3.60;;;;;;;8.21;100.00;99341.97;4982884;28;20430;-82
2024/03/30 00:09:16;;;;;;;8.18;3.40;;;;;;;8.25;100.00;99342.19;5003034;28;20433;-82
2024/03/30 00:11:44;;;;;;;6.40;3.30;;;;;;;8.20;100.00;99331.41;4973929;28;20437;-82
2024/03/30 00:14:12;;;;;;;6.40;3.22;;;;;;;8.21;100.00;99327.63;4989699;28;20786;-81
2024/03/30 00:16:39;;;;;;;7.57;3.63;;;;;;;8.17;100.00;99327.41;5004890;28;20444;-81
2024/03/30 00:19:07;;;;;;;6.90;3.40;;;;;;;8.15;100.00;99341.25;4990896;28;20435;-81
2024/03/30 00:21:34;;;;;;;6.47;3.25;;;;;;;8.08;100.00;99359.78;4990114;28;20451;-81
2024/03/30 00:24:01;;;;;;;6.35;3.28;;;;;;;8.09;100.00;99368.72;4988197;28;20432;-80
2024/03/30 00:26:29;;;;;;;6.45;3.20;;;;;;;8.08;100.00;99364.38;4988958;28;20437;-81
2024/03/30 00:28:56;;;;;;;6.22;3.40;;;;;;;8.07;100.00;99362.81;4975118;28;20433;-81
2024/03/30 00:31:27;;;;;;;7.67;3.93;;;;;;;8.05;100.00;99362.28;4975536;28;20658;-83
2024/03/30 00:33:54;;;;;;;7.90;3.40;;;;;;;8.05;100.00;99367.69;4973518;28;20433;-80
2024/03/30 00:36:21;;;;;;;8.38;3.50;;;;;;;7.96;100.00;99373.00;4991273;28;20425;-80
2024/03/30 00:38:48;;;;;;;7.30;3.60;;;;;;;7.87;100.00;99383.69;4969107;28;20428;-80
2024/03/30 00:41:16;;;;;;;6.10;3.40;;;;;;;7.89;100.00;99377.97;4971993;28;20441;-81
2024/03/30 00:43:43;;;;;;;6.78;3.50;;;;;;;7.89;100.00;99370.66;4986775;28;20427;-79
2024/03/30 00:46:11;;;;;;;5.30;3.25;;;;;;;7.89;100.00;99359.81;4975058;28;20431;-80
2024/03/30 00:48:38;;;;;;;6.53;3.30;;;;;;;7.87;100.00;99362.03;4990579;28;20420;-81
2024/03/30 00:51:06;;;;;;;6.80;3.30;;;;;;;7.77;100.00;99351.31;4971256;28;20448;-82
2024/03/30 00:53:32;;;;;;;6.78;3.28;;;;;;;7.72;100.00;99352.22;4970919;28;20439;-80
2024/03/30 00:56:00;;;;;;;5.83;3.23;;;;;;;7.67;100.00;99357.69;4973687;28;20914;-80
2024/03/30 00:58:28;;;;;;;6.60;3.30;;;;;;;7.70;100.00;99367.94;4991414;28;20778;-81
2024/03/30 01:00:55;;;;;;;6.65;3.20;;;;;;;7.73;100.00;99363.84;4991208;28;20436;-80
2024/03/30 01:03:21;;;;;;;7.55;3.00;;;;;;;7.72;100.00;99356.81;4975305;28;20440;-81
2024/03/30 01:05:50;;;;;;;6.38;3.33;;;;;;;7.71;100.00;99363.34;4993572;28;20437;-80
2024/03/30 01:08:17;;;;;;;6.57;3.38;;;;;;;7.71;100.00;99363.34;4989813;28;20420;-81
2024/03/30 01:10:45;;;;;;;8.73;3.20;;;;;;;7.77;100.00;99359.44;4973314;28;20456;-81
2024/03/30 01:13:12;;;;;;;6.15;3.20;;;;;;;7.77;100.00;99368.38;4986190;28;20762;-80
2024/03/30 01:15:39;;;;;;;5.05;2.80;;;;;;;7.81;100.00;99360.47;4970688;28;20447;-81
2024/03/30 01:18:07;;;;;;;6.80;2.80;;;;;;;7.78;100.00;99366.47;4989294;28;20436;-81
2024/03/30 01:20:35;;;;;;;4.88;2.60;;;;;;;7.79;100.00;99357.28;4992445;28;20455;-83
2024/03/30 01:23:04;;;;;;;4.78;2.75;;;;;;;7.78;100.00;99364.56;4975924;28;20440;-83
2024/03/30 01:25:32;;;;;;;6.13;2.80;;;;;;;7.77;100.00;99371.06;4970570;28;20445;-81
2024/03/30 01:28:00;;;;;;;5.65;2.70;;;;;;;7.84;100.00;99376.13;4991459;28;20432;-81
2024/03/30 01:30:28;;;;;;;5.30;2.65;;;;;;;7.89;100.00;99378.78;4987906;28;20426;-80
2024/03/30 01:32:55;;;;;;;6.03;2.58;;;;;;;7.96;100.00;99375.69;4972282;28;20437;-80
2024/03/30 01:35:23;;;;;;;4.45;2.45;;;;;;;8.04;100.00;99377.75;4972238;28;20444;-81
2024/03/30 01:37:49;;;;;;;4.32;2.28;;;;;;;8.05;100.00;99382.06;4972568;28;20425;-80
2024/03/30 01:40:19;;;;;;;4.30;2.50;;;;;;;8.15;100.00;99384.59;4988394;28;20492;-81
2024/03/30 01:42:46;;;;;;;5.45;2.50;;;;;;;8.16;100.00;99374.56;4990216;28;20421;-81
2024/03/30 01:45:13;;;;;;;5.05;2.20;;;;;;;8.17;100.00;99379.72;4987753;28;20429;-82
2024/03/30 01:47:40;;;;;;;4.57;2.40;;;;;;;8.15;100.00;99370.25;4971414;28;20438;-80
2024/03/30 01:50:08;;;;;;;5.20;2.50;;;;;;;8.15;100.00;99367.56;4977053;28;20516;-80
2024/03/30 01:52:36;;;;;;;5.70;2.50;;;;;;;8.11;100.00;99356.47;4992118;28;20429;-80
2024/03/30 01:55:08;;;;;;;5.72;2.55;;;;;;;8.11;100.00;99358.41;4987016;28;20484;-80
2024/03/30 01:57:35;;;;;;;5.45;2.38;;;;;;;8.08;100.00;99359.78;5001125;28;20432;-81
2024/03/30 02:00:05;;;;;;;5.03;2.50;;;;;;;8.08;100.00;99365.22;4968686;28;20428;-80
2024/03/30 02:02:32;;;;;;;4.60;2.60;;;;;;;8.18;100.00;99375.88;4985879;28;20472;-81
2024/03/30 02:04:59;;;;;;;4.50;2.35;;;;;;;8.15;100.00;99383.81;4979340;28;20448;-80
2024/03/30 02:07:26;;;;;;;4.97;2.15;;;;;;;8.16;100.00;99388.09;4987813;28;20443;-82
2024/03/30 02:09:54;;;;;;;5.53;2.50;;;;;;;8.16;100.00;99391.63;5002882;28;20449;-81
2024/03/30 02:12:21;;;;;;;4.88;2.53;;;;;;;8.13;100.00;99386.81;5008660;28;20435;-81
2024/03/30 02:14:50;;;;;;;4.57;2.50;;;;;;;8.18;100.00;99391.34;4992562;28;20417;-80
2024/03/30 02:17:16;;;;;;;4.15;2.33;;;;;;;8.18;100.00;99400.25;4980188;28;20432;-82
2024/03/30 02:19:46;;;;;;;4.95;2.47;;;;;;;8.18;100.00;99394.06;4989488;28;21161;-80
2024/03/30 02:22:16;;;;;;;5.15;2.50;;;;;;;8.17;100.00;99395.16;4969009;28;20421;-80
2024/03/30 02:24:45;;;;;;;5.93;2.63;;;;;;;8.14;100.00;99396.53;4969739;28;21113;-81
2024/03/30 02:27:12;;;;;;;5.35;2.50;;;;;;;8.16;100.00;99394.34;4972831;28;20435;-81
2024/03/30 02:29:41;;;;;;;5.82;2.70;;;;;;;8.18;100.00;99402.19;4970189;28;20451;-81
2024/03/30 02:32:08;;;;;;;5.40;2.60;;;;;;;8.16;100.00;99388.94;4986314;28;20767;-80
2024/03/30 02:34:36;;;;;;;6.47;2.70;;;;;;;8.16;100.00;99391.63;4992524;28;20413;-80
2024/03/30 02:37:04;;;;;;;5.15;2.50;;;;;;;8.14;100.00;99385.69;4990202;28;21017;-81
2024/03/30 02:39:31;;;;;;;5.53;2.65;;;;;;;8.20;100.00;99389.13;4971361;28;20441;-80
2024/03/30 02:41:59;;;;;;;5.43;2.60;;;;;;;8.15;100.00;99387.31;4969364;28;20436;-80
2024/03/30 02:44:26;;;;;;;5.13;2.45;;;;;;;8.14;100.00;99377.56;4968457;28;20436;-84
2024/03/30 02:46:53;;;;;;;5.35;2.78;;;;;;;8.11;100.00;99382.78;4984434;28;20436;-80
2024/03/30 02:49:20;;;;;;;5.40;2.50;;;;;;;8.08;100.00;99381.47;4969538;28;20526;-79
2024/03/30 02:51:47;;;;;;;5.55;2.80;;;;;;;8.16;100.00;99375.38;5003079;28;20438;-80
2024/03/30 02:54:14;;;;;;;5.43;2.58;;;;;;;8.10;100.00;99368.41;4988751;28;20428;-81
2024/03/30 02:56:41;;;;;;;5.37;2.60;;;;;;;8.14;100.00;99361.31;4969531;28;20428;-84
2024/03/30 02:59:10;;;;;;;4.55;2.50;;;;;;;8.13;100.00;99362.44;4969267;28;20437;-80
2024/03/30 03:01:37;;;;;;;5.22;2.70;;;;;;;8.11;100.00;99358.41;4988477;28;20412;-82
2024/03/30 03:04:05;;;;;;;5.25;2.45;;;;;;;8.09;100.00;99358.69;4988382;28;22560;-80
2024/03/30 03:06:32;;;;;;;5.70;2.60;;;;;;;8.10;100.00;99362.19;4974815;28;20441;-81
2024/03/30 03:08:58;;;;;;;6.00;2.77;;;;;;;8.07;100.00;99365.50;4972746;28;20441;-81
2024/03/30 03:11:26;;;;;;;4.65;2.60;;;;;;;8.05;100.00;99365.81;4999703;28;21015;-83
2024/03/30 03:13:53;;;;;;;5.47;2.70;;;;;;;8.06;100.00;99363.91;5002414;28;20438;-83
2024/03/30 03:16:22;;;;;;;5.03;2.67;;;;;;;8.06;100.00;99364.69;4988772;28;20428;-82
2024/03/30 03:18:48;;;;;;;4.77;2.70;;;;;;;8.04;100.00;99357.94;4970457;28;20882;-82
2024/03/30 03:21:16;;;;;;;4.63;2.55;;;;;;;7.98;100.00;99349.09;4988519;28;20444;-79
2024/03/30 03:23:43;;;;;;;5.40;2.70;;;;;;;7.90;100.00;99349.78;4985261;28;20417;-81
2024/03/30 03:26:10;;;;;;;5.88;2.80;;;;;;;7.86;100.00;99343.34;4987428;28;20417;-82
2024/03/30 03:28:36;;;;;;;5.47;2.80;;;;;;;7.85;100.00;99339.03;4969634;28;20520;-83
2024/03/30 03:31:04;;;;;;;5.00;2.67;;;;;;;7.82;100.00;99343.13;4983809;28;20434;-81
2024/03/30 03:33:32;;;;;;;5.97;2.90;;;;;;;7.86;100.00;99340.63;4986676;28;20432;-80
2024/03/30 03:36:00;;;;;;;5.25;2.88;;;;;;;7.88;100.00;99346.56;4984986;28;20459;-81
2024/03/30 03:38:26;;;;;;;5.78;2.90;;;;;;;7.86;100.00;99344.16;4989070;28;20451;-81
2024/03/30 03:40:54;;;;;;;6.53;3.00;;;;;;;7.86;100.00;99346.88;4972891;28;20440;-83
2024/03/30 03:43:21;;;;;;;6.75;2.90;;;;;;;7.85;100.00;99350.66;4988366;28;20828;-82
2024/03/30 03:45:49;;;;;;;5.17;2.77;;;;;;;7.86;100.00;99349.56;4989486;28;20424;-80
2024/03/30 03:48:16;;;;;;;6.25;2.90;;;;;;;7.91;100.00;99340.56;4989777;28;20424;-82
2024/03/30 03:50:44;;;;;;;5.00;2.80;;;;;;;7.91;100.00;99340.56;4990529;28;20428;-81
2024/03/30 03:53:11;;;;;;;6.17;2.97;;;;;;;7.94;100.00;99345.38;4987389;28;20528;-80
2024/03/30 03:55:38;;;;;;;6.10;2.88;;;;;;;7.94;100.00;99339.97;4994692;28;20922;-81
2024/03/30 03:58:05;;;;;;;7.70;3.25;;;;;;;7.94;100.00;99339.97;4994718;28;20908;-80
2024/03/30 04:00:33;;;;;;;6.40;3.15;;;;;;;7.93;100.00;99333.75;4988717;28;20939;-83
2024/03/30 04:02:59;;;;;;;5.70;3.23;;;;;;;7.96;100.00;99335.06;4990677;28;20435;-80
2024/03/30 04:05:27;;;;;;;6.30;3.20;;;;;;;7.91;100.00;99327.84;4991210;28;20435;-80
2024/03/30 04:07:55;;;;;;;5.35;3.17;;;;;;;7.92;100.00;99325.91;4993412;28;20421;-81
2024/03/30 04:10:23;;;;;;;7.22;3.30;;;;;;;7.88;100.00;99322.19;4990581;28;20420;-81
2024/03/30 04:12:49;;;;;;;6.80;3.40;;;;;;;7.88;100.00;99320.28;4989059;28;20444;-80
2024/03/30 04:15:17;;;;;;;6.05;3.25;;;;;;;7.90;100.00;99315.38;4973582;28;20436;-80
2024/03/30 04:17:43;;;;;;;5.80;3.47;;;;;;;7.90;100.00;99306.44;4973526;28;20459;-80
2024/03/30 04:20:11;;;;;;;6.45;3.10;;;;;;;7.89;100.00;99299.44;4989502;28;20429;-81
2024/03/30 04:22:38;;;;;;;6.10;3.20;;;;;;;7.87;100.00;99296.19;4995958;28;20413;-82
2024/03/30 04:25:08;;;;;;;6.60;3.20;;;;;;;7.82;100.00;99308.72;4996175;28;20431;-79
2024/03/30 04:27:34;;;;;;;6.32;3.20;;;;;;;7.84;100.00;99305.72;4972369;28;21024;-80
2024/03/30 04:30:02;;;;;;;5.63;3.00;;;;;;;7.80;100.00;99310.09;4973742;28;20429;-83
2024/03/30 04:32:29;;;;;;;6.05;3.03;;;;;;;7.82;100.00;99316.03;4989828;28;20429;-80
2024/03/30 04:34:56;;;;;;;7.70;3.55;;;;;;;7.81;100.00;99311.72;4992427;28;20424;-81
2024/03/30 04:37:24;;;;;;;7.00;3.40;;;;;;;7.79;100.00;99298.47;5003700;28;20441;-82
2024/03/30 04:39:52;;;;;;;6.03;3.38;;;;;;;7.76;100.00;99293.66;4988009;28;20797;-81
2024/03/30 04:42:20;;;;;;;6.88;3.72;;;;;;;7.73;100.00;99294.22;4975989;28;20445;-81
2024/03/30 04:44:47;;;;;;;6.50;3.65;;;;;;;7.73;100.00;99305.06;4974352;28;20439;-82
2024/03/30 04:47:13;;;;;;;7.85;3.75;;;;;;;7.71;100.00;99303.78;4987902;28;20428;-79
2024/03/30 04:49:41;;;;;;;6.47;3.55;;;;;;;7.69;100.00;99303.25;4976867;28;20417;-80
2024/03/30 04:52:08;;;;;;;6.72;3.72;;;;;;;7.67;100.00;99300.84;4992599;28;20428;-81
2024/03/30 04:54:35;;;;;;;7.50;3.78;;;;;;;7.70;100.00;99304.88;4987458;28;20443;-80
2024/03/30 04:57:02;;;;;;;6.57;3.93;;;;;;;7.65;100.00;99303.84;4986674;28;20428;-80
2024/03/30 04:59:32;;;;;;;6.70;3.90;;;;;;;7.67;100.00;99308.97;4991342;28;21103;-79
2024/03/30 05:01:58;;;;;;;6.07;3.38;;;;;;;7.68;100.00;99313.28;4992859;28;20433;-82
2024/03/30 05:04:25;;;;;;;6.80;4.07;;;;;;;7.66;100.00;99318.16;4977933;28;20435;-80
2024/03/30 05:06:52;;;;;;;7.50;4.03;;;;;;;7.59;100.00;99306.91;4975803;28;21001;-80
2024/03/30 05:09:19;;;;;;;7.85;3.97;;;;;;;7.59;100.00;99310.41;4995332;28;20424;-80
2024/03/30 05:11:46;;;;;;;8.35;4.18;;;;;;;7.61;100.00;99319.06;5006882;28;20419;-80
2024/03/30 05:14:14;;;;;;;7.93;4.25;;;;;;;7.62;100.00;99314.44;4989909;28;21201;-81
2024/03/30 05:16:42;;;;;;;7.57;4.00;;;;;;;7.65;100.00;99305.72;4979170;28;20430;-80
2024/03/30 05:20:43;;;;;;;7.70;4.03;;;;;;;7.65;100.00;99305.72;4992937;28;20416;-81
2024/03/30 05:21:57;;;;;;;9.07;4.10;;;;;;;7.79;100.00;99313.94;4972973;28;20434;-80
2024/03/30 05:24:24;;;;;;;8.02;3.88;;;;;;;7.76;100.00;99303.66;4977579;28;20424;-80
2024/03/30 05:26:51;;;;;;;10.13;4.00;;;;;;;7.79;100.00;99303.09;4977816;28;20897;-80
2024/03/30 05:29:18;;;;;;;7.82;4.00;;;;;;;7.81;100.00;99298.19;4993698;28;20408;-80
2024/03/30 05:31:46;;;;;;;8.02;4.20;;;;;;;7.82;100.00;99292.47;4990972;28;20427;-80
2024/03/30 05:34:13;;;;;;;6.95;4.28;;;;;;;7.82;100.00;99295.19;4977668;28;20461;-80
2024/03/30 05:36:40;;;;;;;7.47;4.28;;;;;;;7.84;100.00;99289.47;4976139;28;20436;-80
2024/03/30 05:39:07;;;;;;;8.20;4.22;;;;;;;7.84;100.00;99297.59;4976518;28;20795;-81
2024/03/30 05:41:34;;;;;;;8.50;4.88;;;;;;;7.80;100.00;99294.69;4992622;28;20785;-79
2024/03/30 05:44:01;;;;;;;8.57;4.10;;;;;;;7.79;100.00;99290.34;4993539;28;20427;-82
2024/03/30 05:46:28;;;;;;;8.98;5.22;;;;;;;7.79;100.00;99292.28;4992851;28;20810;-81
2024/03/30 05:48:57;;;;;;;8.25;5.30;;;;;;;7.82;100.00;99287.06;4983786;28;20845;-80
2024/03/30 05:51:23;;;;;;;7.68;4.28;;;;;;;7.81;100.00;99288.13;4992582;28;20424;-80
2024/03/30 05:53:50;;;;;;;9.18;4.63;;;;;;;7.77;100.00;99294.47;4992469;28;20763;-81
2024/03/30 05:56:17;;;;;;;7.68;4.32;;;;;;;7.79;100.00;99282.22;4983604;28;20821;-80
2024/03/30 05:58:44;;;;;;;9.00;4.60;;;;;;;7.80;100.00;99286.56;4975909;28;20793;-80
2024/03/30 06:01:11;;;;;;;7.75;4.28;;;;;;;7.82;100.00;99283.56;5005600;28;20432;-83
2024/03/30 06:03:38;;;;;;;6.70;4.05;;;;;;;7.91;100.00;99280.97;4976777;28;20432;-81
2024/03/30 06:06:06;;;;;;;8.00;3.90;;;;;;;8.02;100.00;99282.38;4975045;28;20416;-80
2024/03/30 06:08:34;;;;;;;7.90;4.10;;;;;;;8.10;100.00;99284.41;5024091;28;20425;-82
2024/03/30 06:11:00;;;;;;;7.50;4.10;;;;;;;8.15;100.00;99281.63;4990846;28;20413;-81
2024/03/30 06:13:28;;;;;;;7.15;3.72;;;;;;;8.25;100.00;99291.47;4981327;28;20794;-80
2024/03/30 06:16:00;;;;;;;7.90;4.13;;;;;;;8.31;100.00;99287.59;4975485;28;20425;-81
2024/03/30 06:18:28;;;;;;;6.53;3.70;;;;;;;8.36;100.00;99297.53;4979082;28;20435;-80
2024/03/30 06:20:54;;;;;;;7.40;3.63;;;;;;;8.47;100.00;99306.31;4976477;28;20431;-81
2024/03/30 06:23:23;;;;;;;6.00;3.30;;;;;;;8.50;100.00;99300.28;4972611;28;20435;-80
2024/03/30 06:25:49;;;;;;;6.28;3.60;;;;;;;8.47;100.00;99300.88;4987075;28;20886;-81
2024/03/30 06:28:17;;;;;;;5.57;3.38;;;;;;;8.53;100.00;99288.03;4975751;28;20426;-80
2024/03/30 06:30:43;;;;;;;6.40;3.42;;;;;;;8.51;100.00;99288.34;4977119;28;20432;-80
2024/03/30 06:33:10;;;;;;;8.50;3.58;;;;;;;8.59;100.00;99297.66;4975929;28;20425;-80
2024/03/30 06:35:37;;;;;;;5.47;3.17;;;;;;;8.74;100.00;99300.13;4976959;28;20793;-81
2024/03/30 06:38:05;;;;;;;7.53;3.35;;;;;;;8.73;100.00;99297.66;4975866;28;20439;-81
2024/03/30 06:43:42;;;;;;;7.13;3.35;;;;;;;8.77;100.00;99280.50;4958092;28;20428;-80
2024/03/30 06:46:09;;;;;;;6.90;3.60;;;;;;;8.90;100.00;99300.59;4965693;28;20427;-80
2024/03/30 06:48:37;;;;;;;6.10;3.45;;;;;;;8.92;100.00;99300.28;4991772;28;20428;-80
2024/03/30 06:51:05;;;;;;;6.22;3.60;;;;;;;8.93;100.00;99291.84;4990771;28;20427;-82
2024/03/30 06:53:32;;;;;;;5.72;3.50;;;;;;;8.94;100.00;99298.09;4977894;28;20805;-81
2024/03/30 06:56:00;;;;;;;6.05;3.40;;;;;;;9.10;100.00;99296.66;4989879;28;20427;-81
2024/03/30 06:58:28;;;;;;;6.97;3.40;;;;;;;9.13;100.00;99297.97;4990240;28;20427;-80
2024/03/30 07:00:55;;;;;;;6.88;3.33;;;;;;;9.28;100.00;99305.78;4992506;28;20423;-81
2024/03/30 07:03:22;;;;;;;6.68;3.60;;;;;;;9.35;100.00;99308.88;4990104;28;20498;-80
2024/03/30 07:05:50;;;;;;;6.13;3.60;;;;;;;9.27;100.00;99293.31;4992643;28;20420;-82
2024/03/30 07:08:17;;;;;;;7.68;3.50;;;;;;;9.25;100.00;99295.50;5007429;28;20416;-80
2024/03/30 07:10:45;;;;;;;5.45;3.30;;;;;;;9.33;100.00;99299.44;4977983;28;20424;-82
2024/03/30 07:13:13;;;;;;;5.93;3.50;;;;;;;9.34;100.00;99295.63;4990414;28;20424;-81
2024/03/30 07:15:40;;;;;;;6.90;3.60;;;;;;;9.32;100.00;99285.06;4996583;28;20417;-81
2024/03/30 07:18:07;;;;;;;6.93;3.40;;;;;;;9.43;100.00;99292.97;4976595;28;20445;-81
2024/03/30 07:20:34;;;;;;;7.78;3.35;;;;;;;9.50;100.00;99287.91;4994767;28;20424;-80
2024/03/30 07:23:01;;;;;;;7.25;3.40;;;;;;;9.64;100.00;99293.28;4990652;28;20416;-81
2024/03/30 07:25:28;;;;;;;6.20;3.47;;;;;;;9.67;100.00;99290.78;4977298;28;20436;-81
2024/03/30 07:27:55;;;;;;;6.22;3.13;;;;;;;9.79;100.00;99284.81;4976051;28;20791;-81
2024/03/30 07:30:23;;;;;;;6.88;3.63;;;;;;;9.77;100.00;99292.44;4979229;28;20425;-81
2024/03/30 07:32:50;;;;;;;6.23;3.00;;;;;;;9.81;100.00;99296.16;4978944;28;20436;-82
2024/03/30 07:35:17;;;;;;;6.20;3.15;;;;;;;9.90;100.00;99287.25;4996130;28;20416;-80
2024/03/30 07:37:44;;;;;;;4.82;2.80;;;;;;;9.92;100.00;99283.13;4995664;28;20428;-81
2024/03/30 07:40:11;;;;;;;5.78;3.38;;;;;;;9.99;100.00;99279.97;4976939;28;20433;-80
2024/03/30 07:42:38;;;;;;;5.40;3.25;;;;;;;10.19;100.00;99276.72;4986257;28;20432;-81
2024/03/30 07:45:05;;;;;;;6.10;3.35;;;;;;;10.26;100.00;99283.63;4979441;28;20973;-82
2024/03/30 07:47:33;;;;;;;5.65;3.22;;;;;;;10.32;100.00;99275.03;4974522;28;21039;-81
2024/03/30 07:50:01;;;;;;;4.85;2.85;;;;;;;10.44;100.00;99281.81;4975618;28;21044;-81
2024/03/30 07:52:27;;;;;;;5.03;3.00;;;;;;;10.53;100.00;99280.75;4976471;28;20433;-80
2024/03/30 07:54:54;;;;;;;5.45;3.03;;;;;;;10.62;100.00;99277.25;4994582;28;20428;-82
2024/03/30 07:57:22;;;;;;;5.85;2.90;;;;;;;10.65;100.00;99266.56;4994611;28;20420;-84
2024/03/30 07:59:50;;;;;;;5.85;2.92;;;;;;;10.67;100.00;99266.25;4995279;28;20417;-81
2024/03/30 08:02:16;;;;;;;7.28;2.85;;;;;;;10.79;100.00;99263.72;4989443;28;20422;-80
2024/03/30 08:04:45;;;;;;;5.35;2.80;;;;;;;10.93;100.00;99263.59;5003193;28;20421;-80
2024/03/30 08:07:12;;;;;;;5.57;2.78;;;;;;;11.01;100.00;99256.56;4994885;28;20417;-80
2024/03/30 08:09:39;;;;;;;5.40;2.90;;;;;;;11.06;100.00;99259.13;4979295;28;20427;-81
2024/03/30 08:12:06;;;;;;;5.60;3.00;;;;;;;11.13;100.00;99261.38;4992270;28;20427;-81
2024/03/30 08:14:33;;;;;;;5.93;3.10;;;;;;;11.22;100.00;99254.81;4993891;28;20414;-82
2024/03/30 08:17:00;;;;;;;7.40;3.20;;;;;;;11.32;100.00;99250.19;4971780;28;20777;-82
2024/03/30 08:19:27;;;;;;;6.40;3.67;;;;;;;11.37;100.00;99248.09;5009770;28;20434;-83
2024/03/30 08:21:55;;;;;;;6.25;3.70;;;;;;;11.47;100.00;99232.56;4994674;28;20424;-80
2024/03/30 08:24:22;;;;;;;6.97;3.80;;;;;;;11.45;100.00;99243.78;4985106;28;20496;-81
2024/03/30 08:26:49;;;;;;;6.70;4.13;;;;;;;11.55;100.00;99235.28;4976012;28;20425;-82
2024/03/30 08:29:16;;;;;;;6.88;3.80;;;;;;;11.59;100.00;99238.19;4981086;28;20429;-81
2024/03/30 08:31:43;;;;;;;7.60;3.80;;;;;;;11.69;100.00;99243.28;4977275;28;20428;-82
2024/03/30 08:34:10;;;;;;;6.47;4.03;;;;;;;11.88;100.00;99236.69;4976165;28;20430;-82
2024/03/30 08:36:37;;;;;;;5.82;3.40;;;;;;;11.85;100.00;99232.69;4981256;28;20426;-82
2024/03/30 08:39:06;;;;;;;7.17;3.40;;;;;;;11.98;100.00;99230.13;4974641;28;20431;-82
2024/03/30 08:41:32;;;;;;;6.40;3.28;;;;;;;12.02;100.00;99225.63;4993079;28;20418;-82
2024/03/30 08:44:02;;;;;;;6.75;3.65;;;;;;;12.08;100.00;99227.84;4994886;28;20413;-82
2024/03/30 08:46:29;;;;;;;7.18;3.70;;;;;;;12.19;100.00;99224.75;4990384;28;20431;-82
2024/03/30 08:49:03;;;;;;;5.13;2.97;;;;;;;12.27;100.00;99231.31;4991365;28;20421;-83
2024/03/30 08:51:29;;;;;;;7.65;3.30;;;;;;;12.25;100.00;99215.28;4977172;28;20909;-81
2024/03/30 08:54:01;;;;;;;6.82;3.63;;;;;;;12.30;100.00;99219.75;4975670;28;21037;-83
2024/03/30 08:56:29;;;;;;;7.07;3.65;;;;;;;12.31;100.00;99218.63;4978142;28;20440;-83
2024/03/30 08:58:57;;;;;;;8.10;4.50;;;;;;;12.25;100.00;99227.00;5027059;28;20485;-81
2024/03/30 09:01:24;;;;;;;9.35;5.22;;;;;;;12.39;100.00;99223.25;5008104;28;20439;-81
2024/03/30 09:03:52;;;;;;;6.35;3.15;;;;;;;12.36;100.00;99223.88;4977716;28;21276;-82
2024/03/30 09:06:18;;;;;;;5.63;3.22;;;;;;;12.36;100.00;99215.69;4963968;28;20415;-81
2024/03/30 09:08:47;;;;;;;8.25;4.45;;;;;;;12.33;100.00;99211.72;4976390;28;20440;-81
2024/03/30 09:11:13;;;;;;;7.83;4.80;;;;;;;12.38;100.00;99218.91;4993568;28;20452;-81
2024/03/30 09:13:42;;;;;;;8.02;4.63;;;;;;;12.44;100.00;99220.31;4975738;28;20769;-81
2024/03/30 09:16:08;;;;;;;6.63;4.20;;;;;;;12.57;100.00;99210.31;4991613;28;20421;-80
2024/03/30 09:18:36;;;;;;;8.93;5.03;;;;;;;12.68;100.00;99222.47;4968495;28;20437;-82
2024/03/30 09:21:04;;;;;;;8.18;4.20;;;;;;;12.64;100.00;99212.53;4975012;28;20468;-81
2024/03/30 09:23:32;;;;;;;8.00;4.47;;;;;;;12.67;100.00;99200.97;4991614;28;20459;-80
2024/03/30 09:25:59;;;;;;;17.88;10.57;;;;;;;12.79;100.00;99205.69;4988112;28;20428;-81
2024/03/30 09:28:28;;;;;;;13.95;8.80;;;;;;;12.85;100.00;99207.13;4988392;28;20443;-80
2024/03/30 09:30:55;;;;;;;13.35;9.13;;;;;;;12.92;100.00;99212.84;4982317;28;20459;-82
2024/03/30 09:33:23;;;;;;;9.85;4.78;;;;;;;12.84;100.00;99210.97;4993264;28;20447;-81
2024/03/30 09:35:49;;;;;;;8.50;5.00;;;;;;;13.00;100.00;99216.66;4988462;28;20430;-81
2024/03/30 09:38:17;;;;;;;9.95;6.40;;;;;;;13.05;100.00;99210.97;4973887;28;20430;-80
2024/03/30 09:40:50;;;;;;;11.32;7.07;;;;;;;13.06;100.00;99232.50;4982956;28;20436;-82
2024/03/30 09:43:19;;;;;;;10.90;7.30;;;;;;;13.12;100.00;99207.72;4992623;28;20417;-80
2024/03/30 09:45:47;;;;;;;11.35;6.20;;;;;;;13.22;100.00;99207.34;4991370;28;20418;-80
2024/03/30 09:48:19;;;;;;;7.43;3.93;;;;;;;13.41;100.00;99202.22;4976968;28;20517;-79
2024/03/30 09:50:47;;;;;;;8.23;3.25;;;;;;;13.55;100.00;99204.66;5024595;28;20432;-81
2024/03/30 09:53:17;;;;;;;4.88;2.70;;;;;;;13.74;100.00;99195.97;4968242;28;20452;-82
2024/03/30 09:55:45;;;;;;;6.07;2.72;;;;;;;13.80;100.00;99201.22;5019100;28;20431;-80
2024/03/30 09:58:14;;;;;;;4.50;2.35;;;;;;;13.92;100.00;99204.78;5005741;28;20444;-81
2024/03/30 10:00:41;;;;;;;7.57;2.20;;;;;;;14.10;100.00;99205.38;5006947;28;20435;-81
2024/03/30 10:03:08;;;;;;;3.92;2.20;;;;;;;14.03;100.00;99204.31;4972364;28;20426;-80
2024/03/30 10:05:39;;;;;;;5.10;2.00;;;;;;;14.35;100.00;99193.63;5005275;28;20440;-81
2024/03/30 10:08:08;;;;;;;6.27;2.10;;;;;;;14.46;100.00;99200.28;4983224;28;20437;-78
2024/03/30 10:10:34;;;;;;;5.10;2.30;;;;;;;14.51;100.00;99197.28;4990356;28;20766;-84
2024/03/30 10:13:05;;;;;;;3.42;1.90;;;;;;;14.48;100.00;99195.25;4969494;28;20456;-80
2024/03/30 10:15:35;;;;;;;4.22;2.13;;;;;;;14.46;100.00;99195.59;4991148;28;20417;-81
2024/03/30 10:18:03;;;;;;;3.88;1.85;;;;;;;14.54;100.00;99190.34;4988720;28;20424;-82
2024/03/30 10:20:30;;;;;;;5.50;2.10;;;;;;;14.49;100.00;99190.59;4986657;28;20423;-78
2024/03/30 10:22:59;;;;;;;5.10;1.80;;;;;;;14.71;100.00;99189.34;4968803;28;20428;-80
2024/03/30 10:25:25;;;;;;;6.47;1.90;;;;;;;14.83;100.00;99186.59;4985270;28;20419;-81
2024/03/30 10:27:53;;;;;;;5.95;2.20;;;;;;;14.94;100.00;99186.88;5007241;28;20436;-81
2024/03/30 10:30:19;;;;;;;5.38;2.30;;;;;;;14.91;100.00;99182.91;4976696;28;20457;-82
2024/03/30 10:32:47;;;;;;;5.45;2.10;;;;;;;14.90;100.00;99186.81;4980654;28;20428;-81
2024/03/30 10:35:19;;;;;;;3.97;1.95;;;;;;;14.81;100.00;99175.16;4949766;28;20448;-84
2024/03/30 10:37:48;;;;;;;5.18;1.98;;;;;;;14.93;100.00;99177.09;4963961;28;20972;-84
2024/03/30 10:40:16;;;;;;;4.40;2.17;;;;;;;14.85;100.00;99173.34;4973671;28;21053;-83
2024/03/30 10:42:43;;;;;;;4.90;1.90;;;;;;;14.94;100.00;99179.50;4972083;28;20432;-81
2024/03/30 10:45:10;;;;;;;5.57;2.30;;;;;;;14.98;100.00;99156.88;4949655;28;21908;-84
2024/03/30 10:47:38;;;;;;;6.75;2.00;;;;;;;15.12;100.00;99160.84;4952524;28;22091;-84
2024/03/30 10:50:06;;;;;;;5.50;2.40;;;;;;;15.20;100.00;99167.28;4952065;28;20801;-83
2024/03/30 10:52:34;;;;;;;6.45;1.98;;;;;;;15.45;100.00;99168.00;4958974;28;20424;-82
2024/03/30 10:55:01;;;;;;;4.47;2.17;;;;;;;15.64;100.00;99169.28;4948820;28;20956;-84
2024/03/30 10:57:29;;;;;;;8.80;2.13;;;;;;;15.60;100.00;99169.19;4952620;28;20445;-81
2024/03/30 11:00:01;;;;;;;7.10;2.00;;;;;;;15.77;100.00;99167.25;4961706;28;20439;-84
2024/03/30 11:02:30;;;;;;;4.97;2.00;;;;;;;16.02;100.00;99178.13;4975527;28;20427;-80
2024/03/30 11:04:58;;;;;;;7.10;2.10;;;;;;;16.17;100.00;99173.78;4954313;28;20436;-84
2024/03/30 11:07:26;;;;;;;6.65;2.20;;;;;;;16.25;100.00;99176.34;4949591;28;20455;-85
2024/03/30 11:09:53;;;;;;;6.22;2.08;;;;;;;16.06;100.00;99181.75;4954896;28;20432;-82
2024/03/30 11:12:20;;;;;;;7.30;2.23;;;;;;;16.05;100.00;99191.16;4950940;28;20432;-82
2024/03/30 11:14:50;;;;;;;7.50;2.08;;;;;;;16.30;100.00;99178.03;4969670;28;20450;-84
2024/03/30 11:17:24;;;;;;;5.32;2.05;;;;;;;16.28;100.00;99186.63;4952655;28;20447;-84
2024/03/30 11:19:58;;;;;;;8.02;3.05;;;;;;;16.33;100.00;99189.09;4971304;28;21305;-84
2024/03/30 11:22:39;;;;;;;6.85;2.38;;;;;;;16.33;100.00;99189.09;4970644;28;20416;-85
2024/03/30 11:25:09;;;;;;;7.28;2.88;;;;;;;16.34;100.00;99189.91;4953259;28;20433;-82
2024/03/30 11:27:42;;;;;;;8.35;2.30;;;;;;;16.42;100.00;99183.44;4955083;28;20448;-82
2024/03/30 11:30:35;;;;;;;10.00;2.30;;;;;;;16.63;100.00;99194.13;4945006;28;20440;-84
2024/03/30 11:33:09;;;;;;;6.50;2.00;;;;;;;16.86;100.00;99196.19;4958668;28;21091;-85
2024/03/30 11:35:43;;;;;;;9.10;2.20;;;;;;;17.11;100.00;99185.78;4955497;28;20465;-85